Terminal Aerodrome Forecast
Issued by NWS

Home | Current Version | Previous Version | Text Only | Print | Product List | Glossary On
Versions: 1 2 3 4 5 6 7 8 9 10 11 12 13 14 15
000
FTUS42 KTAE 200700 AAA
TAFDHN
TAF AMD
KDHN 200720Z 2007/2106 05004KT P6SM SKC
     FM200900 05005KT P6SM BKN007
     FM201300 05010KT P6SM BKN010
     FM201500 06010KT P6SM SCT030=

USA.gov is the U.S. government's official web portal to all federal, state and local government web resources and services.